createdAt,value
2018-11-22T00:00:04.249Z,1011.43
2018-11-22T00:01:04.234Z,1011.46
2018-11-22T00:02:04.207Z,1011.43
2018-11-22T00:03:04.183Z,1011.42
2018-11-22T00:04:04.165Z,1011.39
2018-11-22T00:05:04.142Z,1011.44
2018-11-22T00:06:04.124Z,1011.42
2018-11-22T00:07:04.099Z,1011.41
2018-11-22T00:08:04.078Z,1011.47
2018-11-22T00:09:04.058Z,1011.43
2018-11-22T00:10:04.036Z,1011.45
2018-11-22T00:11:04.016Z,1011.42
2018-11-22T00:12:03.993Z,1011.44
2018-11-22T00:13:03.972Z,1011.47
2018-11-22T00:14:03.951Z,1011.47
2018-11-22T00:15:03.932Z,1011.45
2018-11-22T00:16:03.912Z,1011.43
2018-11-22T00:17:03.886Z,1011.43
2018-11-22T00:18:03.868Z,1011.47
2018-11-22T00:19:03.846Z,1011.42
2018-11-22T00:20:03.824Z,1011.43
2018-11-22T00:21:03.857Z,1011.44
2018-11-22T00:22:03.780Z,1011.44
2018-11-22T00:23:03.758Z,1011.4
2018-11-22T00:24:03.741Z,1011.44
2018-11-22T00:25:03.719Z,1011.45
2018-11-22T00:26:03.696Z,1011.43
2018-11-22T00:27:03.675Z,1011.44
2018-11-22T00:28:03.658Z,1011.43
2018-11-22T00:29:03.631Z,1011.45
2018-11-22T00:30:03.611Z,1011.46
2018-11-22T00:31:03.590Z,1011.48
2018-11-22T00:32:03.568Z,1011.47
2018-11-22T00:33:03.548Z,1011.45
2018-11-22T00:34:03.527Z,1011.47
2018-11-22T00:35:03.507Z,1011.45
2018-11-22T00:36:03.483Z,1011.47
2018-11-22T00:37:03.461Z,1011.43
2018-11-22T00:38:03.440Z,1011.44
2018-11-22T00:39:03.420Z,1011.45
2018-11-22T00:40:03.399Z,1011.49
2018-11-22T00:41:03.377Z,1011.51
2018-11-22T00:42:03.356Z,1011.48
2018-11-22T00:43:03.336Z,1011.5
2018-11-22T00:44:03.313Z,1011.47
2018-11-22T00:45:03.293Z,1011.48
2018-11-22T00:46:03.275Z,1011.44
2018-11-22T00:47:04.221Z,1011.47
2018-11-22T00:48:03.229Z,1011.5
2018-11-22T00:49:03.207Z,1011.5
2018-11-22T00:50:03.189Z,1011.49
2018-11-22T00:51:03.163Z,1011.5
2018-11-22T00:52:03.144Z,1011.52
2018-11-22T00:53:03.122Z,1011.49
2018-11-22T00:54:03.102Z,1011.49
2018-11-22T00:55:03.079Z,1011.44
2018-11-22T00:56:03.059Z,1011.45
2018-11-22T00:57:03.037Z,1011.4
2018-11-22T00:58:03.018Z,1011.36
2018-11-22T00:59:02.994Z,1011.42
2018-11-22T01:00:02.976Z,1011.41
2018-11-22T01:01:02.953Z,1011.46
2018-11-22T01:02:02.931Z,1011.45
2018-11-22T01:03:02.909Z,1011.41
2018-11-22T01:04:02.893Z,1011.47
2018-11-22T01:05:02.869Z,1011.45
2018-11-22T01:06:02.846Z,1011.43
2018-11-22T01:07:02.825Z,1011.4
2018-11-22T01:08:02.805Z,1011.44
2018-11-22T01:09:02.785Z,1011.43
2018-11-22T01:10:02.763Z,1011.45
2018-11-22T01:11:02.749Z,1011.43
2018-11-22T01:12:02.723Z,1011.42
2018-11-22T01:13:02.703Z,1011.43
2018-11-22T01:14:02.678Z,1011.42
2018-11-22T01:15:02.656Z,1011.43
2018-11-22T01:16:02.634Z,1011.43
2018-11-22T01:17:02.614Z,1011.41
2018-11-22T01:18:02.591Z,1011.44
2018-11-22T01:19:02.573Z,1011.43
2018-11-22T01:20:02.555Z,1011.46
2018-11-22T01:21:02.536Z,1011.38
2018-11-22T01:22:02.511Z,1011.44
2018-11-22T01:23:02.486Z,1011.36
2018-11-22T01:24:02.517Z,1011.38
2018-11-22T01:25:02.447Z,1011.4
2018-11-22T01:26:02.425Z,1011.4
2018-11-22T01:27:02.405Z,1011.43
2018-11-22T01:28:02.381Z,1011.4
2018-11-22T01:29:02.362Z,1011.42
2018-11-22T01:30:02.341Z,1011.4
2018-11-22T01:31:02.317Z,1011.44
2018-11-22T01:32:02.298Z,1011.41
2018-11-22T01:33:02.274Z,1011.4
2018-11-22T01:34:02.254Z,1011.4
2018-11-22T01:35:02.235Z,1011.4
2018-11-22T01:36:02.215Z,1011.37
2018-11-22T01:37:02.190Z,1011.36
2018-11-22T01:38:02.176Z,1011.33
2018-11-22T01:39:02.151Z,1011.33
2018-11-22T01:40:02.127Z,1011.38
2018-11-22T01:41:02.107Z,1011.37
2018-11-22T01:42:02.087Z,1011.35
2018-11-22T01:43:02.063Z,1011.38
2018-11-22T01:44:02.043Z,1011.37
2018-11-22T01:45:02.022Z,1011.41
2018-11-22T01:46:02.011Z,1011.4
2018-11-22T01:47:01.985Z,1011.39
2018-11-22T01:48:01.959Z,1011.4
2018-11-22T01:49:01.936Z,1011.41
2018-11-22T01:50:01.919Z,1011.41
2018-11-22T01:51:01.895Z,1011.4
2018-11-22T01:52:01.874Z,1011.39
2018-11-22T01:53:01.852Z,1011.38
2018-11-22T01:54:01.833Z,1011.36
2018-11-22T01:55:01.812Z,1011.36
2018-11-22T01:56:01.790Z,1011.36
2018-11-22T01:57:01.769Z,1011.34
2018-11-22T01:58:01.745Z,1011.42
2018-11-22T01:59:01.725Z,1011.35
2018-11-22T02:00:01.702Z,1011.35
2018-11-22T02:01:01.689Z,1011.38
2018-11-22T02:02:01.665Z,1011.36
2018-11-22T02:03:01.642Z,1011.32
2018-11-22T02:04:01.619Z,1011.33
2018-11-22T02:05:01.599Z,1011.34
2018-11-22T02:06:01.584Z,1011.34
2018-11-22T02:07:01.559Z,1011.34
2018-11-22T02:08:01.533Z,1011.34
2018-11-22T02:09:01.518Z,1011.3
2018-11-22T02:10:01.490Z,1011.33
2018-11-22T02:11:01.471Z,1011.34
2018-11-22T02:12:01.453Z,1011.33
2018-11-22T02:13:01.432Z,1011.34
2018-11-22T02:14:01.413Z,1011.36
2018-11-22T02:15:01.385Z,1011.35
2018-11-22T02:16:01.365Z,1011.37
2018-11-22T02:17:01.346Z,1011.38
2018-11-22T02:18:01.323Z,1011.35
2018-11-22T02:19:01.305Z,1011.37
2018-11-22T02:20:01.279Z,1011.35
2018-11-22T02:21:01.262Z,1011.36
2018-11-22T02:22:01.239Z,1011.36
2018-11-22T02:23:01.218Z,1011.38
2018-11-22T02:24:01.198Z,1011.35
2018-11-22T02:25:01.231Z,1011.37
2018-11-22T02:26:01.154Z,1011.35
2018-11-22T02:27:01.131Z,1011.32
2018-11-22T02:28:01.115Z,1011.32
2018-11-22T02:29:01.091Z,1011.34
2018-11-22T02:30:01.072Z,1011.3
2018-11-22T02:31:01.048Z,1011.27
2018-11-22T02:32:01.028Z,1011.3
2018-11-22T02:33:01.007Z,1011.28
2018-11-22T02:34:00.983Z,1011.32
2018-11-22T02:35:00.963Z,1011.29
2018-11-22T02:36:00.941Z,1011.3
2018-11-22T02:37:00.922Z,1011.3
2018-11-22T02:38:00.901Z,1011.31
2018-11-22T02:39:00.877Z,1011.34
2018-11-22T02:40:00.858Z,1011.32
2018-11-22T02:41:00.836Z,1011.32
2018-11-22T02:42:00.815Z,1011.32
2018-11-22T02:43:00.793Z,1011.31
2018-11-22T02:44:00.773Z,1011.31
2018-11-22T02:45:00.763Z,1011.31
2018-11-22T02:46:00.734Z,1011.3
2018-11-22T02:47:00.716Z,1011.29
2018-11-22T02:48:00.687Z,1011.33
2018-11-22T02:49:00.676Z,1011.26
2018-11-22T02:50:00.647Z,1011.28
2018-11-22T02:51:00.631Z,1011.29
2018-11-22T02:52:00.601Z,1011.27
2018-11-22T02:53:00.585Z,1011.26
2018-11-22T02:54:00.563Z,1011.28
2018-11-22T02:55:00.555Z,1011.3
2018-11-22T02:56:00.518Z,1011.28
2018-11-22T02:57:00.532Z,1011.28
2018-11-22T02:58:00.479Z,1011.31
2018-11-22T02:59:00.455Z,1011.34
2018-11-22T03:00:00.434Z,1011.32
2018-11-22T03:01:00.413Z,1011.34
2018-11-22T03:02:00.390Z,1011.34
2018-11-22T03:03:00.372Z,1011.31
2018-11-22T03:04:00.355Z,1011.28
2018-11-22T03:05:00.334Z,1011.3
2018-11-22T03:06:00.306Z,1011.32
2018-11-22T03:07:00.487Z,1011.28
2018-11-22T03:08:00.263Z,1011.28
2018-11-22T03:09:00.245Z,1011.29
2018-11-22T03:10:00.222Z,1011.32
2018-11-22T03:11:00.200Z,1011.3
2018-11-22T03:12:00.183Z,1011.29
2018-11-22T03:13:00.161Z,1011.32
2018-11-22T03:14:00.144Z,1011.33
2018-11-22T03:15:00.117Z,1011.29
2018-11-22T03:16:00.095Z,1011.31
2018-11-22T03:17:00.075Z,1011.34
2018-11-22T03:18:00.052Z,1011.29
2018-11-22T03:19:00.032Z,1011.3
2018-11-22T03:20:00.011Z,1011.32
2018-11-22T03:20:59.990Z,1011.31
2018-11-22T03:21:59.967Z,1011.33
2018-11-22T03:22:59.947Z,1011.32
2018-11-22T03:23:59.926Z,1011.29
2018-11-22T03:24:59.907Z,1011.26
2018-11-22T03:25:59.892Z,1011.3
2018-11-22T03:26:59.872Z,1011.3
2018-11-22T03:27:59.842Z,1011.29
2018-11-22T03:28:59.818Z,1011.23
2018-11-22T03:29:59.798Z,1011.28
2018-11-22T03:30:59.787Z,1011.28
2018-11-22T03:31:59.755Z,1011.31
2018-11-22T03:32:59.736Z,1011.31
2018-11-22T03:33:59.713Z,1011.32
2018-11-22T03:34:59.699Z,1011.3
2018-11-22T03:35:59.671Z,1011.33
2018-11-22T03:36:59.651Z,1011.33
2018-11-22T03:37:59.628Z,1011.37
2018-11-22T03:38:59.610Z,1011.37
2018-11-22T03:39:59.585Z,1011.37
2018-11-22T03:40:59.567Z,1011.36
2018-11-22T03:41:59.547Z,1011.33
2018-11-22T03:42:59.520Z,1011.36
2018-11-22T03:43:59.500Z,1011.3
2018-11-22T03:44:59.479Z,1011.29
2018-11-22T03:45:59.457Z,1011.32
2018-11-22T03:46:59.434Z,1011.34
2018-11-22T03:47:59.414Z,1011.32
2018-11-22T03:48:59.395Z,1011.33
2018-11-22T03:49:59.370Z,1011.38
2018-11-22T03:50:59.358Z,1011.39
2018-11-22T03:51:59.331Z,1011.36
2018-11-22T03:52:59.307Z,1011.34
2018-11-22T03:53:59.287Z,1011.39
2018-11-22T03:54:59.264Z,1011.39
2018-11-22T03:55:59.243Z,1011.4
2018-11-22T03:56:59.224Z,1011.43
2018-11-22T03:57:59.203Z,1011.42
2018-11-22T03:58:59.181Z,1011.4
2018-11-22T03:59:59.157Z,1011.38
2018-11-22T04:00:59.143Z,1011.41
2018-11-22T04:01:59.118Z,1011.37
2018-11-22T04:02:59.103Z,1011.36
2018-11-22T04:03:59.076Z,1011.42
2018-11-22T04:04:59.054Z,1011.38
2018-11-22T04:05:59.033Z,1011.39
2018-11-22T04:06:59.009Z,1011.4
2018-11-22T04:07:58.990Z,1011.39
2018-11-22T04:08:58.968Z,1011.4
2018-11-22T04:09:58.949Z,1011.41
2018-11-22T04:10:58.924Z,1011.41
2018-11-22T04:11:58.902Z,1011.38
2018-11-22T04:12:58.885Z,1011.38
2018-11-22T04:13:58.864Z,1011.35
2018-11-22T04:14:58.838Z,1011.33
2018-11-22T04:15:58.821Z,1011.33
2018-11-22T04:16:58.799Z,1011.36
2018-11-22T04:17:58.777Z,1011.33
2018-11-22T04:18:58.753Z,1011.36
2018-11-22T04:19:58.733Z,1011.34
2018-11-22T04:20:58.713Z,1011.39
2018-11-22T04:21:58.691Z,1011.39
2018-11-22T04:22:58.670Z,1011.31
2018-11-22T04:23:58.653Z,1011.38
2018-11-22T04:24:58.627Z,1011.34
2018-11-22T04:25:58.605Z,1011.35
2018-11-22T04:26:58.585Z,1011.35
2018-11-22T04:27:58.563Z,1011.32
2018-11-22T04:28:58.542Z,1011.32
2018-11-22T04:29:58.525Z,1011.35
2018-11-22T04:30:58.500Z,1011.31
2018-11-22T04:31:58.529Z,1011.31
2018-11-22T04:32:58.457Z,1011.31
2018-11-22T04:33:58.435Z,1011.28
2018-11-22T04:34:58.413Z,1011.25
2018-11-22T04:35:58.394Z,1011.28
2018-11-22T04:36:58.370Z,1011.25
2018-11-22T04:37:58.351Z,1011.23
2018-11-22T04:38:58.329Z,1011.22
2018-11-22T04:39:58.306Z,1011.23
2018-11-22T04:40:58.290Z,1011.27
2018-11-22T04:41:58.280Z,1011.28
2018-11-22T04:42:58.242Z,1011.29
2018-11-22T04:43:58.227Z,1011.26
2018-11-22T04:44:58.200Z,1011.27
2018-11-22T04:45:58.180Z,1011.24
2018-11-22T04:46:58.159Z,1011.29
2018-11-22T04:47:58.136Z,1011.26
2018-11-22T04:48:58.114Z,1011.26
2018-11-22T04:49:58.099Z,1011.26
2018-11-22T04:50:58.072Z,1011.3
2018-11-22T04:51:58.094Z,1011.26
2018-11-22T04:52:58.034Z,1011.27
2018-11-22T04:53:58.007Z,1011.28
2018-11-22T04:54:58.011Z,1011.26
2018-11-22T04:55:57.966Z,1011.23
2018-11-22T04:56:57.944Z,1011.29
2018-11-22T04:57:58.139Z,1011.23
2018-11-22T04:58:57.901Z,1011.24
2018-11-22T04:59:57.880Z,1011.21
2018-11-22T05:00:57.862Z,1011.23
2018-11-22T05:01:57.836Z,1011.23
2018-11-22T05:02:57.815Z,1011.23
2018-11-22T05:03:57.794Z,1011.27
2018-11-22T05:04:57.773Z,1011.26
2018-11-22T05:05:57.755Z,1011.27
2018-11-22T05:06:57.935Z,1011.26
2018-11-22T05:07:57.710Z,1011.28
2018-11-22T05:08:57.696Z,1011.29
2018-11-22T05:09:57.666Z,1011.31
2018-11-22T05:10:57.643Z,1011.3
2018-11-22T05:11:57.622Z,1011.32
2018-11-22T05:12:57.604Z,1011.32
2018-11-22T05:13:57.580Z,1011.31
2018-11-22T05:14:57.562Z,1011.27
2018-11-22T05:15:57.536Z,1011.24
2018-11-22T05:16:57.516Z,1011.32
2018-11-22T05:17:57.495Z,1011.3
2018-11-22T05:18:57.473Z,1011.27
2018-11-22T05:19:57.453Z,1011.28
2018-11-22T05:20:57.435Z,1011.31
2018-11-22T05:21:57.415Z,1011.24
2018-11-22T05:22:57.388Z,1011.27
2018-11-22T05:23:57.368Z,1011.29
2018-11-22T05:24:57.344Z,1011.26
2018-11-22T05:25:57.323Z,1011.28
2018-11-22T05:26:57.307Z,1011.27
2018-11-22T05:27:57.281Z,1011.29
2018-11-22T05:28:57.263Z,1011.29
2018-11-22T05:29:57.239Z,1011.28
2018-11-22T05:30:57.219Z,1011.25
2018-11-22T05:31:57.195Z,1011.22
2018-11-22T05:32:57.175Z,1011.25
2018-11-22T05:33:57.154Z,1011.23
2018-11-22T05:34:57.133Z,1011.24
2018-11-22T05:35:57.109Z,1011.23
2018-11-22T05:36:57.092Z,1011.26
2018-11-22T05:37:57.066Z,1011.2
2018-11-22T05:38:57.047Z,1011.23
2018-11-22T05:39:57.023Z,1011.27
2018-11-22T05:40:57.002Z,1011.23
2018-11-22T05:41:56.983Z,1011.24
2018-11-22T05:42:56.961Z,1011.23
2018-11-22T05:43:56.939Z,1011.25
2018-11-22T05:44:56.922Z,1011.24
2018-11-22T05:45:56.899Z,1011.21
2018-11-22T05:46:56.874Z,1011.22
2018-11-22T05:47:56.854Z,1011.24
2018-11-22T05:48:56.833Z,1011.22
2018-11-22T05:49:56.815Z,1011.2
2018-11-22T05:50:56.788Z,1011.19
2018-11-22T05:51:56.771Z,1011.25
2018-11-22T05:52:56.748Z,1011.25
2018-11-22T05:53:56.725Z,1011.27
2018-11-22T05:54:56.703Z,1011.24
2018-11-22T05:55:56.683Z,1011.24
2018-11-22T05:56:56.661Z,1011.26
2018-11-22T05:57:56.654Z,1011.24
2018-11-22T05:58:56.621Z,1011.24
2018-11-22T05:59:56.597Z,1011.21
2018-11-22T06:00:56.576Z,1011.23
2018-11-22T06:01:56.553Z,1011.22
2018-11-22T06:02:56.535Z,1011.24
2018-11-22T06:03:56.512Z,1011.19
2018-11-22T06:04:56.500Z,1011.24
2018-11-22T06:05:56.472Z,1011.2
2018-11-22T06:06:56.449Z,1011.21
2018-11-22T06:07:56.425Z,1011.22
2018-11-22T06:08:56.403Z,1011.21
2018-11-22T06:09:56.384Z,1011.18
2018-11-22T06:10:56.360Z,1011.21
2018-11-22T06:11:56.341Z,1011.21
2018-11-22T06:12:56.321Z,1011.19
2018-11-22T06:13:56.299Z,1011.17
2018-11-22T06:14:56.277Z,1011.16
2018-11-22T06:15:56.254Z,1011.2
2018-11-22T06:16:56.233Z,1011.19
2018-11-22T06:17:56.225Z,1011.17
2018-11-22T06:18:56.191Z,1011.14
2018-11-22T06:19:56.168Z,1011.2
2018-11-22T06:20:56.149Z,1011.18
2018-11-22T06:21:56.127Z,1011.19
2018-11-22T06:22:56.104Z,1011.16
2018-11-22T06:23:56.083Z,1011.15
2018-11-22T06:24:56.063Z,1011.21
2018-11-22T06:25:56.040Z,1011.19
2018-11-22T06:26:56.019Z,1011.17
2018-11-22T06:27:55.998Z,1011.17
2018-11-22T06:28:55.977Z,1011.2
2018-11-22T06:29:55.956Z,1011.17
2018-11-22T06:30:55.934Z,1011.2
2018-11-22T06:31:55.911Z,1011.2
2018-11-22T06:32:55.890Z,1011.21
2018-11-22T06:33:55.868Z,1011.22
2018-11-22T06:34:55.853Z,1011.22
2018-11-22T06:35:55.825Z,1011.18
2018-11-22T06:36:55.805Z,1011.18
2018-11-22T06:37:55.781Z,1011.23
2018-11-22T06:38:55.761Z,1011.2
2018-11-22T06:39:55.740Z,1011.22
2018-11-22T06:40:55.721Z,1011.23
2018-11-22T06:41:55.697Z,1011.24
2018-11-22T06:42:55.682Z,1011.29
2018-11-22T06:43:55.657Z,1011.24
2018-11-22T06:44:55.632Z,1011.25
2018-11-22T06:45:55.611Z,1011.26
2018-11-22T06:46:55.591Z,1011.26
2018-11-22T06:47:55.574Z,1011.25
2018-11-22T06:48:55.565Z,1011.24
2018-11-22T06:49:55.529Z,1011.27
2018-11-22T06:50:58.132Z,1011.28
2018-11-22T06:51:55.484Z,1011.25
2018-11-22T06:52:55.472Z,1011.31
2018-11-22T06:53:55.444Z,1011.27
2018-11-22T06:54:55.422Z,1011.27
2018-11-22T06:55:55.398Z,1011.3
2018-11-22T06:56:55.374Z,1011.33
2018-11-22T06:57:55.357Z,1011.36
2018-11-22T06:58:55.333Z,1011.34
2018-11-22T06:59:55.313Z,1011.35
2018-11-22T07:00:55.292Z,1011.35
2018-11-22T07:01:55.269Z,1011.37
2018-11-22T07:02:55.252Z,1011.35
2018-11-22T07:03:55.226Z,1011.37
2018-11-22T07:04:55.206Z,1011.41
2018-11-22T07:05:55.185Z,1011.35
2018-11-22T07:06:55.367Z,1011.38
2018-11-22T07:07:55.141Z,1011.35
2018-11-22T07:08:55.120Z,1011.37
2018-11-22T07:09:55.102Z,1011.37
2018-11-22T07:10:55.076Z,1011.36
2018-11-22T07:11:55.055Z,1011.37
2018-11-22T07:12:55.035Z,1011.34
2018-11-22T07:13:55.013Z,1011.32
2018-11-22T07:14:54.990Z,1011.36
2018-11-22T07:15:54.983Z,1011.34
2018-11-22T07:16:54.951Z,1011.35
2018-11-22T07:17:54.928Z,1011.36
2018-11-22T07:18:54.907Z,1011.3
2018-11-22T07:19:54.886Z,1011.33
2018-11-22T07:20:54.863Z,1011.3
2018-11-22T07:21:54.843Z,1011.32
2018-11-22T07:22:54.822Z,1011.31
2018-11-22T07:23:54.850Z,1011.34
2018-11-22T07:24:54.781Z,1011.36
2018-11-22T07:25:54.756Z,1011.37
2018-11-22T07:26:54.735Z,1011.36
2018-11-22T07:27:54.713Z,1011.36
2018-11-22T07:28:54.695Z,1011.39
2018-11-22T07:29:54.671Z,1011.39
2018-11-22T07:30:54.650Z,1011.37
2018-11-22T07:31:54.631Z,1011.38
2018-11-22T07:32:54.609Z,1011.4
2018-11-22T07:33:54.586Z,1011.37
2018-11-22T07:34:54.565Z,1011.4
2018-11-22T07:35:54.544Z,1011.4
2018-11-22T07:36:54.522Z,1011.42
2018-11-22T07:37:54.510Z,1011.4
2018-11-22T07:38:54.483Z,1011.39
2018-11-22T07:39:54.462Z,1011.37
2018-11-22T07:40:54.445Z,1011.36
2018-11-22T07:41:54.418Z,1011.36
2018-11-22T07:42:54.396Z,1011.33
2018-11-22T07:43:54.372Z,1011.34
2018-11-22T07:44:54.350Z,1011.36
2018-11-22T07:45:54.333Z,1011.36
2018-11-22T07:46:54.309Z,1011.36
2018-11-22T07:47:54.290Z,1011.34
2018-11-22T07:48:54.267Z,1011.35
2018-11-22T07:49:54.245Z,1011.31
2018-11-22T07:50:54.224Z,1011.35
2018-11-22T07:51:54.204Z,1011.33
2018-11-22T07:52:55.981Z,1011.29
2018-11-22T07:53:54.161Z,1011.32
2018-11-22T07:54:54.138Z,1011.35
2018-11-22T07:55:54.119Z,1011.34
2018-11-22T07:56:54.095Z,1011.32
2018-11-22T07:57:54.076Z,1011.36
2018-11-22T07:58:54.057Z,1011.32
2018-11-22T07:59:54.031Z,1011.32
2018-11-22T08:00:54.011Z,1011.34
2018-11-22T08:01:53.989Z,1011.32
2018-11-22T08:02:53.968Z,1011.33
2018-11-22T08:03:53.950Z,1011.33
2018-11-22T08:04:53.969Z,1011.31
2018-11-22T08:05:53.902Z,1011.28
2018-11-22T08:06:53.882Z,1011.33
2018-11-22T08:07:53.862Z,1011.32
2018-11-22T08:08:53.839Z,1011.29
2018-11-22T08:09:53.820Z,1011.31
2018-11-22T08:10:53.800Z,1011.35
2018-11-22T08:11:53.779Z,1011.33
2018-11-22T08:12:53.861Z,1011.34
2018-11-22T08:13:53.736Z,1011.33
2018-11-22T08:14:53.714Z,1011.32
2018-11-22T08:15:53.690Z,1011.32
2018-11-22T08:16:53.670Z,1011.28
2018-11-22T08:17:53.654Z,1011.31
2018-11-22T08:18:53.631Z,1011.32
2018-11-22T08:19:53.608Z,1011.3
2018-11-22T08:20:53.597Z,1011.29
2018-11-22T08:21:53.567Z,1011.32
2018-11-22T08:22:53.543Z,1011.34
2018-11-22T08:23:53.526Z,1011.35
2018-11-22T08:24:53.505Z,1011.38
2018-11-22T08:25:53.479Z,1011.4
2018-11-22T08:26:53.459Z,1011.37
2018-11-22T08:27:53.436Z,1011.4
2018-11-22T08:28:53.416Z,1011.38
2018-11-22T08:29:53.395Z,1011.41
2018-11-22T08:30:53.372Z,1011.39
2018-11-22T08:31:53.352Z,1011.39
2018-11-22T08:32:53.334Z,1011.43
2018-11-22T08:33:53.311Z,1011.44
2018-11-22T08:34:53.289Z,1011.44
2018-11-22T08:35:53.270Z,1011.43
2018-11-22T08:36:53.248Z,1011.47
2018-11-22T08:37:53.225Z,1011.38
2018-11-22T08:38:53.203Z,1011.41
2018-11-22T08:39:53.180Z,1011.38
2018-11-22T08:40:53.162Z,1011.42
2018-11-22T08:41:53.139Z,1011.42
2018-11-22T08:42:55.182Z,1011.34
2018-11-22T08:43:53.102Z,1011.42
2018-11-22T08:44:53.085Z,1011.4
2018-11-22T08:45:53.054Z,1011.43
2018-11-22T08:46:53.033Z,1011.42
2018-11-22T08:47:53.012Z,1011.43
2018-11-22T08:48:52.990Z,1011.45
2018-11-22T08:49:52.980Z,1011.42
2018-11-22T08:50:52.949Z,1011.45
2018-11-22T08:51:52.928Z,1011.48
2018-11-22T08:52:52.908Z,1011.49
2018-11-22T08:53:52.887Z,1011.47
2018-11-22T08:54:52.863Z,1011.51
2018-11-22T08:55:52.841Z,1011.52
2018-11-22T08:56:52.820Z,1011.52
2018-11-22T08:57:52.801Z,1011.57
2018-11-22T08:58:52.778Z,1011.49
2018-11-22T08:59:52.758Z,1011.52
2018-11-22T09:00:52.735Z,1011.52
2018-11-22T09:01:52.716Z,1011.5
2018-11-22T09:02:52.695Z,1011.53
2018-11-22T09:03:52.672Z,1011.52
2018-11-22T09:04:52.652Z,1011.55
2018-11-22T09:05:52.631Z,1011.55
2018-11-22T09:06:52.810Z,1011.61
2018-11-22T09:07:52.588Z,1011.58
2018-11-22T09:08:52.566Z,1011.56
2018-11-22T09:09:52.546Z,1011.6
2018-11-22T09:10:52.526Z,1011.6
2018-11-22T09:11:52.504Z,1011.57
2018-11-22T09:12:52.485Z,1011.54
2018-11-22T09:13:52.462Z,1011.59
2018-11-22T09:14:52.441Z,1011.57
2018-11-22T09:15:52.421Z,1011.57
2018-11-22T09:16:52.397Z,1011.58
2018-11-22T09:17:52.378Z,1011.59
2018-11-22T09:18:52.358Z,1011.61
2018-11-22T09:19:52.334Z,1011.61
2018-11-22T09:20:52.315Z,1011.56
2018-11-22T09:21:52.294Z,1011.62
2018-11-22T09:22:52.273Z,1011.61
2018-11-22T09:23:52.252Z,1011.62
2018-11-22T09:24:52.264Z,1011.6
2018-11-22T09:25:52.211Z,1011.57
2018-11-22T09:26:52.191Z,1011.56
2018-11-22T09:27:52.167Z,1011.59
2018-11-22T09:28:52.154Z,1011.57
2018-11-22T09:29:52.126Z,1011.59
2018-11-22T09:30:52.108Z,1011.57
2018-11-22T09:31:52.086Z,1011.54
2018-11-22T09:32:52.065Z,1011.57
2018-11-22T09:33:52.046Z,1011.55
2018-11-22T09:34:52.024Z,1011.56
2018-11-22T09:35:52.002Z,1011.55
2018-11-22T09:36:51.981Z,1011.57
2018-11-22T09:37:51.965Z,1011.54
2018-11-22T09:38:51.944Z,1011.54
2018-11-22T09:39:51.920Z,1011.59
2018-11-22T09:40:51.897Z,1011.58
2018-11-22T09:41:51.876Z,1011.61
2018-11-22T09:42:51.856Z,1011.6
2018-11-22T09:43:51.837Z,1011.59
2018-11-22T09:44:51.815Z,1011.6
2018-11-22T09:45:51.795Z,1011.62
2018-11-22T09:46:51.777Z,1011.58
2018-11-22T09:47:51.754Z,1011.59
2018-11-22T09:48:51.733Z,1011.61
2018-11-22T09:49:51.710Z,1011.59
2018-11-22T09:50:51.689Z,1011.57
2018-11-22T09:51:51.669Z,1011.63
2018-11-22T09:52:51.653Z,1011.6
2018-11-22T09:53:51.627Z,1011.63
2018-11-22T09:54:51.605Z,1011.6
2018-11-22T09:55:51.595Z,1011.6
2018-11-22T09:56:51.564Z,1011.66
2018-11-22T09:57:51.543Z,1011.6
2018-11-22T09:58:51.527Z,1011.58
2018-11-22T09:59:51.509Z,1011.61
2018-11-22T10:00:51.484Z,1011.63
2018-11-22T10:01:51.464Z,1011.59
2018-11-22T10:02:51.472Z,1011.57
2018-11-22T10:03:51.425Z,1011.58
2018-11-22T10:04:51.515Z,1011.6
2018-11-22T10:05:51.450Z,1011.57
2018-11-22T10:06:51.358Z,1011.57
2018-11-22T10:07:51.339Z,1011.57
2018-11-22T10:08:51.319Z,1011.58
2018-11-22T10:09:51.296Z,1011.55
2018-11-22T10:10:51.279Z,1011.52
2018-11-22T10:11:51.257Z,1011.57
2018-11-22T10:12:51.237Z,1011.55
2018-11-22T10:13:51.218Z,1011.53
2018-11-22T10:14:51.199Z,1011.54
2018-11-22T10:15:51.174Z,1011.52
2018-11-22T10:16:51.168Z,1011.48
2018-11-22T10:17:51.133Z,1011.5
2018-11-22T10:18:51.117Z,1011.51
2018-11-22T10:19:51.092Z,1011.53
2018-11-22T10:20:51.072Z,1011.51
2018-11-22T10:21:51.050Z,1011.54
2018-11-22T10:22:51.030Z,1011.51
2018-11-22T10:23:51.058Z,1011.48
2018-11-22T10:24:50.989Z,1011.51
2018-11-22T10:25:50.971Z,1011.5
2018-11-22T10:26:50.951Z,1011.47
2018-11-22T10:27:50.927Z,1011.48
2018-11-22T10:28:50.908Z,1011.49
2018-11-22T10:29:50.888Z,1011.51
2018-11-22T10:30:50.867Z,1011.47
2018-11-22T10:31:50.998Z,1011.44
2018-11-22T10:32:50.827Z,1011.48
2018-11-22T10:33:50.806Z,1011.49
2018-11-22T10:34:50.788Z,1011.42
2018-11-22T10:35:50.764Z,1011.48
2018-11-22T10:36:50.743Z,1011.5
2018-11-22T10:37:50.849Z,1011.47
2018-11-22T10:38:50.706Z,1011.52
2018-11-22T10:39:50.684Z,1011.5
2018-11-22T10:40:50.663Z,1011.58
2018-11-22T10:41:50.645Z,1011.55
2018-11-22T10:42:50.622Z,1011.55
2018-11-22T10:43:50.602Z,1011.57
2018-11-22T10:44:50.586Z,1011.57
2018-11-22T10:45:50.563Z,1011.56
2018-11-22T10:46:50.540Z,1011.56
2018-11-22T10:47:50.520Z,1011.58
2018-11-22T10:48:50.499Z,1011.57
2018-11-22T10:49:51.336Z,1011.59
2018-11-22T10:50:50.460Z,1011.57
2018-11-22T10:51:50.438Z,1011.54
2018-11-22T10:52:50.420Z,1011.54
2018-11-22T10:53:50.396Z,1011.52
2018-11-22T10:54:50.380Z,1011.51
2018-11-22T10:55:50.373Z,1011.56
2018-11-22T10:56:50.338Z,1011.57
2018-11-22T10:57:53.787Z,1011.56
2018-11-22T10:58:50.317Z,1011.6
2018-11-22T10:59:50.275Z,1011.6
2018-11-22T11:00:50.255Z,1011.6
2018-11-22T11:01:50.233Z,1011.61
2018-11-22T11:02:50.215Z,1011.61
2018-11-22T11:03:50.197Z,1011.59
2018-11-22T11:04:50.173Z,1011.61
2018-11-22T11:05:50.154Z,1011.65
2018-11-22T11:06:50.138Z,1011.68
2018-11-22T11:07:50.112Z,1011.62
2018-11-22T11:08:50.091Z,1011.64
2018-11-22T11:09:50.072Z,1011.66
2018-11-22T11:10:50.054Z,1011.64
2018-11-22T11:11:50.030Z,1011.66
2018-11-22T11:12:50.012Z,1011.67
2018-11-22T11:13:49.990Z,1011.63
2018-11-22T11:14:49.973Z,1011.64
2018-11-22T11:15:49.951Z,1011.62
2018-11-22T11:16:49.929Z,1011.6
2018-11-22T11:17:49.912Z,1011.58
2018-11-22T11:18:49.890Z,1011.56
2018-11-22T11:19:49.871Z,1011.57
2018-11-22T11:20:49.854Z,1011.58
2018-11-22T11:21:49.833Z,1011.53
2018-11-22T11:22:49.814Z,1011.52
2018-11-22T11:23:49.789Z,1011.55
2018-11-22T11:24:49.770Z,1011.51
2018-11-22T11:25:49.747Z,1011.52
2018-11-22T11:26:49.752Z,1011.49
2018-11-22T11:27:49.709Z,1011.5
2018-11-22T11:28:49.688Z,1011.46
2018-11-22T11:29:49.671Z,1011.48
2018-11-22T11:30:49.654Z,1011.51
2018-11-22T11:31:49.628Z,1011.48
2018-11-22T11:32:49.610Z,1011.44
2018-11-22T11:33:49.589Z,1011.46
2018-11-22T11:34:49.567Z,1011.45
2018-11-22T11:35:49.548Z,1011.49
2018-11-22T11:36:49.529Z,1011.49
2018-11-22T11:37:49.510Z,1011.44
2018-11-22T11:38:49.487Z,1011.47
2018-11-22T11:39:49.468Z,1011.52
2018-11-22T11:40:49.447Z,1011.53
2018-11-22T11:41:49.427Z,1011.47
2018-11-22T11:42:49.410Z,1011.53
2018-11-22T11:43:49.388Z,1011.53
2018-11-22T11:44:49.366Z,1011.5
2018-11-22T11:45:49.349Z,1011.49
2018-11-22T11:46:49.330Z,1011.49
2018-11-22T11:47:49.307Z,1011.47
2018-11-22T11:48:49.286Z,1011.48
2018-11-22T11:49:49.278Z,1011.43
2018-11-22T11:50:49.248Z,1011.45
2018-11-22T11:51:49.228Z,1011.45
2018-11-22T11:52:49.206Z,1011.43
2018-11-22T11:53:49.187Z,1011.43
2018-11-22T11:54:49.168Z,1011.41
2018-11-22T11:55:49.148Z,1011.4
2018-11-22T11:56:49.132Z,1011.36
2018-11-22T11:57:49.109Z,1011.4
2018-11-22T11:58:49.088Z,1011.39
2018-11-22T11:59:49.071Z,1011.39
2018-11-22T12:00:49.047Z,1011.38
2018-11-22T12:01:49.027Z,1011.35
2018-11-22T12:02:49.007Z,1011.31
2018-11-22T12:03:48.987Z,1011.29
2018-11-22T12:04:48.968Z,1011.31
2018-11-22T12:05:48.952Z,1011.26
2018-11-22T12:06:48.927Z,1011.31
2018-11-22T12:07:48.908Z,1011.31